Time;durP1;ratioP1;P1;durP2;ratioP2;P2;SDS_P1;SDS_P2;PMS_P1;PMS_P2;Temp;Humidity;BMP_temperature;BMP_pressure;BME280_temperature;BME280_humidity;BME280_pressure;Samples;Min_cycle;Max_cycle;Signal;HPM_P1;HPM_P2
2022/03/06 00:01:12;;;;;;;176.30;72.35;;;;;;;-1.74;66.73;97642.84;1674251;85;25664;-88
2022/03/06 00:03:38;;;;;;;184.48;79.00;;;;;;;-1.77;66.54;97635.14;1674490;85;27566;-88
2022/03/06 00:06:05;;;;;;;165.77;77.67;;;;;;;-1.80;66.68;97646.82;1674501;85;25793;-88
2022/03/06 00:08:33;;;;;;;147.98;70.85;;;;;;;-1.79;66.67;97635.75;1674462;85;25776;-88
2022/03/06 00:10:59;;;;;;;138.72;71.70;;;;;;;-1.83;66.68;97634.72;1674567;85;26343;-87
2022/03/06 00:13:26;;;;;;;153.05;73.37;;;;;;;-1.93;66.76;97632.45;1674491;85;25769;-87
2022/03/06 00:15:53;;;;;;;154.60;76.75;;;;;;;-1.97;66.97;97633.70;1674490;85;27244;-88
2022/03/06 00:18:19;;;;;;;159.52;78.50;;;;;;;-2.01;66.88;97634.91;1674528;85;25759;-87
2022/03/06 00:20:46;;;;;;;164.30;77.50;;;;;;;-1.99;66.93;97631.66;1674550;84;26320;-87
2022/03/06 00:23:13;;;;;;;203.50;95.97;;;;;;;-2.01;67.02;97632.27;1674311;84;25692;-87
2022/03/06 00:25:39;;;;;;;273.10;128.78;;;;;;;-2.11;67.06;97632.68;1672738;85;25719;-88
2022/03/06 00:28:06;;;;;;;229.38;105.92;;;;;;;-2.12;67.18;97632.33;1672500;85;27565;-87
2022/03/06 00:30:33;;;;;;;192.65;89.15;;;;;;;-2.14;67.21;97627.64;1672506;85;25740;-88
2022/03/06 00:32:59;;;;;;;195.38;91.97;;;;;;;-2.11;67.37;97623.91;1672614;85;25911;-87
2022/03/06 00:35:28;;;;;;;202.30;97.50;;;;;;;-2.10;67.38;97629.08;1672501;85;25690;-87
2022/03/06 00:37:56;;;;;;;186.60;87.72;;;;;;;-2.06;67.42;97629.19;1672648;85;25712;-87
2022/03/06 00:40:23;;;;;;;178.00;83.50;;;;;;;-2.04;67.37;97627.70;1672521;85;27428;-87
2022/03/06 00:42:50;;;;;;;171.13;80.00;;;;;;;-2.07;67.32;97630.15;1672513;85;26549;-87
2022/03/06 00:45:17;;;;;;;155.55;74.75;;;;;;;-2.08;67.45;97624.50;1672549;85;25740;-87
2022/03/06 00:47:43;;;;;;;160.57;76.82;;;;;;;-2.04;67.52;97620.61;1672601;85;25724;-87
2022/03/06 00:50:10;;;;;;;164.55;78.30;;;;;;;-1.99;67.54;97626.38;1672583;85;25721;-87
2022/03/06 00:52:39;;;;;;;170.43;81.80;;;;;;;-1.93;67.49;97621.03;1672516;85;27424;-87
2022/03/06 00:55:08;;;;;;;162.72;80.42;;;;;;;-1.89;67.39;97621.14;1672625;85;25700;-87
2022/03/06 00:57:34;;;;;;;160.70;78.92;;;;;;;-1.89;67.33;97618.49;1672434;84;26322;-87
2022/03/06 01:00:01;;;;;;;159.03;77.65;;;;;;;-1.91;67.41;97621.27;1672611;85;25689;-87
2022/03/06 01:02:28;;;;;;;163.10;81.17;;;;;;;-1.92;67.46;97618.27;1672761;85;25725;-87
2022/03/06 01:04:54;;;;;;;163.62;80.83;;;;;;;-1.91;67.36;97612.01;1672646;84;27561;-87
2022/03/06 01:07:21;;;;;;;179.05;83.50;;;;;;;-1.88;67.37;97609.11;1672688;85;25702;-87
2022/03/06 01:09:47;;;;;;;163.22;79.32;;;;;;;-1.84;67.36;97606.58;1672886;84;25671;-87
2022/03/06 01:12:14;;;;;;;177.17;84.77;;;;;;;-1.83;67.25;97614.87;1672637;85;26402;-86
2022/03/06 01:14:40;;;;;;;183.00;83.50;;;;;;;-1.81;67.22;97604.12;1672707;85;25704;-87
2022/03/06 01:17:07;;;;;;;172.00;84.62;;;;;;;-1.79;67.32;97605.33;1672583;85;27541;-88
2022/03/06 01:19:34;;;;;;;187.90;87.30;;;;;;;-1.84;67.31;97603.92;1672576;85;25804;-87
2022/03/06 01:22:00;;;;;;;168.30;82.65;;;;;;;-1.87;67.31;97609.47;1672738;84;25743;-87
2022/03/06 01:24:27;;;;;;;172.15;79.12;;;;;;;-1.87;67.30;97609.47;1673397;84;25841;-87
2022/03/06 01:26:53;;;;;;;175.47;80.90;;;;;;;-1.85;67.33;97611.98;1674583;85;25263;-88
2022/03/06 01:29:22;;;;;;;184.90;87.47;;;;;;;-1.82;67.29;97613.91;1711164;83;27424;-87
2022/03/06 01:31:49;;;;;;;188.25;90.97;;;;;;;-1.84;67.29;97615.83;1706777;83;25718;-88
2022/03/06 01:34:16;;;;;;;188.18;90.62;;;;;;;-1.82;67.41;97619.20;1706867;84;25727;-88
2022/03/06 01:36:42;;;;;;;186.47;87.72;;;;;;;-1.80;67.33;97617.71;1663520;85;25765;-88
2022/03/06 01:39:09;;;;;;;175.80;85.03;;;;;;;-1.76;67.29;97613.02;1680372;85;25699;-88
2022/03/06 01:41:36;;;;;;;170.75;84.00;;;;;;;-1.74;67.23;97611.92;1678838;85;26951;-88
2022/03/06 01:44:05;;;;;;;161.77;81.60;;;;;;;-1.74;67.22;97612.41;1674553;85;25716;-87
2022/03/06 01:46:31;;;;;;;166.28;84.05;;;;;;;-1.82;67.26;97608.61;1674670;85;25724;-88
2022/03/06 01:48:58;;;;;;;175.75;85.85;;;;;;;-1.91;67.32;97610.69;1674612;85;26295;-88
2022/03/06 01:51:25;;;;;;;187.00;89.30;;;;;;;-1.93;67.44;97606.00;1674577;85;25671;-88
2022/03/06 01:53:51;;;;;;;172.07;87.15;;;;;;;-1.96;67.60;97604.95;1675275;85;27427;-86
2022/03/06 01:56:18;;;;;;;179.87;89.65;;;;;;;-1.98;67.72;97604.24;1675842;85;25675;-87
2022/03/06 01:58:44;;;;;;;172.62;87.45;;;;;;;-2.01;67.68;97602.33;1650179;85;25802;-86
2022/03/06 02:01:11;;;;;;;174.53;84.32;;;;;;;-2.00;67.78;97600.87;1701824;84;25951;-87
2022/03/06 02:03:37;;;;;;;186.67;88.70;;;;;;;-2.02;67.68;97601.97;1706605;84;25810;-87
2022/03/06 02:06:07;;;;;;;177.40;88.25;;;;;;;-2.07;67.71;97603.70;1706572;84;28316;-87
2022/03/06 02:08:33;;;;;;;184.90;93.45;;;;;;;-2.03;67.76;97607.74;1750151;81;25729;-87
2022/03/06 02:11:00;;;;;;;180.78;91.20;;;;;;;-1.98;67.75;97606.89;1713406;83;25745;-87
2022/03/06 02:13:28;;;;;;;190.00;93.90;;;;;;;-1.93;67.74;97606.48;1705809;83;25901;-87
2022/03/06 02:15:55;;;;;;;193.62;90.83;;;;;;;-1.88;67.69;97601.66;1674686;85;25704;-87
2022/03/06 02:18:22;;;;;;;190.38;92.25;;;;;;;-1.88;67.70;97601.17;1674537;85;28216;-88
2022/03/06 02:20:49;;;;;;;204.85;94.50;;;;;;;-1.87;67.71;97601.53;1674545;85;25694;-87
2022/03/06 02:23:16;;;;;;;221.25;96.95;;;;;;;-1.84;67.69;97600.44;1674589;85;25881;-88
2022/03/06 02:25:42;;;;;;;209.77;98.50;;;;;;;-1.89;67.61;97603.46;1672768;84;25806;-87
2022/03/06 02:28:11;;;;;;;202.28;94.17;;;;;;;-1.91;67.86;97593.48;1672451;85;25815;-87
2022/03/06 02:30:41;;;;;;;216.48;97.02;;;;;;;-1.92;68.03;97594.45;1672565;85;27242;-87
2022/03/06 02:33:11;;;;;;;205.77;96.32;;;;;;;-2.01;68.01;97583.33;1672480;85;25719;-87
2022/03/06 02:35:38;;;;;;;225.97;101.62;;;;;;;-2.00;68.09;97587.66;1672594;85;25785;-87
2022/03/06 02:38:05;;;;;;;220.20;101.42;;;;;;;-2.01;68.19;97593.07;1673841;84;26596;-87
2022/03/06 02:40:39;;;;;;;218.88;100.53;;;;;;;-1.97;68.31;97595.34;1735580;82;25736;-86
2022/03/06 02:43:00;;;;;;;236.30;101.35;;;;;;;-1.91;68.34;97586.88;1738488;82;27496;-87
2022/03/06 02:45:27;;;;;;;219.18;98.50;;;;;;;-1.90;68.29;97592.52;1739308;82;25693;-87
2022/03/06 02:47:56;;;;;;;238.72;104.12;;;;;;;-2.01;68.17;97593.91;1735779;82;25778;-87
2022/03/06 02:50:26;;;;;;;219.77;101.92;;;;;;;-2.01;68.37;97583.33;1723207;83;25768;-87
2022/03/06 02:52:55;;;;;;;200.93;96.67;;;;;;;-1.94;68.37;97583.67;1723183;83;25723;-87
2022/03/06 02:55:22;;;;;;;189.93;92.30;;;;;;;-1.89;68.28;97577.00;1723135;83;27540;-85
2022/03/06 02:57:49;;;;;;;185.80;92.67;;;;;;;-1.85;68.30;97581.08;1723109;83;26362;-87
2022/03/06 03:00:19;;;;;;;183.60;92.15;;;;;;;-1.86;68.27;97583.84;1723016;83;25753;-87
2022/03/06 03:02:47;;;;;;;196.95;95.60;;;;;;;-1.88;68.38;97587.11;1723017;81;26641;-87
2022/03/06 03:05:15;;;;;;;208.50;98.47;;;;;;;-1.93;68.39;97590.13;1722719;83;26359;-87
2022/03/06 03:07:44;;;;;;;208.50;100.42;;;;;;;-1.95;68.49;97589.92;1722755;83;27437;-87
2022/03/06 03:10:14;;;;;;;203.15;98.03;;;;;;;-1.97;68.65;97583.44;1722641;83;25785;-87
2022/03/06 03:12:42;;;;;;;188.15;93.37;;;;;;;-1.96;68.64;97585.60;1722905;81;25725;-87
2022/03/06 03:15:11;;;;;;;183.60;91.15;;;;;;;-1.94;68.68;97589.80;1723025;83;25945;-88
2022/03/06 03:17:37;;;;;;;188.85;93.10;;;;;;;-1.92;68.67;97590.48;1699242;83;26313;-87
2022/03/06 03:20:06;;;;;;;182.65;87.60;;;;;;;-1.90;68.71;97587.23;1687733;84;27635;-87
2022/03/06 03:22:33;;;;;;;173.07;85.38;;;;;;;-1.86;68.72;97595.27;1704283;84;25702;-86
2022/03/06 03:24:59;;;;;;;181.28;87.22;;;;;;;-1.86;68.71;97593.95;1704971;83;25671;-87
2022/03/06 03:27:26;;;;;;;182.72;87.62;;;;;;;-1.91;68.71;97590.84;1706665;83;25894;-87
2022/03/06 03:29:53;;;;;;;168.95;86.82;;;;;;;-1.90;68.77;97591.68;1706773;84;25702;-87
2022/03/06 03:32:19;;;;;;;164.47;81.28;;;;;;;-1.87;68.80;97600.20;1706669;84;28104;-87
2022/03/06 03:34:46;;;;;;;156.30;79.17;;;;;;;-1.82;68.77;97594.05;1706691;84;25783;-88
2022/03/06 03:37:12;;;;;;;156.90;82.65;;;;;;;-1.85;68.77;97599.59;1706749;84;25251;-87
2022/03/06 03:39:39;;;;;;;165.82;82.75;;;;;;;-1.87;68.88;97601.53;1706694;84;25884;-87
2022/03/06 03:42:06;;;;;;;162.60;82.02;;;;;;;-1.86;68.97;97596.59;1706468;84;25714;-87
2022/03/06 03:44:33;;;;;;;161.68;81.53;;;;;;;-1.83;68.98;97591.53;1706728;84;27286;-87
2022/03/06 03:46:59;;;;;;;181.70;86.63;;;;;;;-1.86;68.96;97600.56;1706467;84;25736;-86
2022/03/06 03:49:26;;;;;;;185.03;91.97;;;;;;;-1.87;69.09;97596.72;1706624;84;25775;-87
2022/03/06 03:51:53;;;;;;;181.55;90.05;;;;;;;-1.86;69.19;97603.21;1706587;84;25779;-87
2022/03/06 03:54:19;;;;;;;182.57;89.28;;;;;;;-1.90;69.15;97605.75;1706717;84;25695;-87
2022/03/06 03:56:46;;;;;;;173.57;89.72;;;;;;;-1.92;69.22;97598.42;1706741;84;27990;-87
2022/03/06 03:59:12;;;;;;;171.85;84.52;;;;;;;-1.90;69.31;97600.45;1706576;84;25659;-87
2022/03/06 04:01:39;;;;;;;171.90;85.35;;;;;;;-1.86;69.36;97606.34;1706682;84;25664;-87
2022/03/06 04:04:05;;;;;;;165.00;82.75;;;;;;;-1.86;69.45;97605.86;1706412;84;25743;-87
2022/03/06 04:06:32;;;;;;;163.95;82.50;;;;;;;-1.89;69.41;97608.75;1706665;84;25698;-87
2022/03/06 04:08:59;;;;;;;162.07;82.78;;;;;;;-1.88;69.51;97611.76;1706670;84;27209;-87
2022/03/06 04:11:25;;;;;;;161.88;85.07;;;;;;;-1.87;69.58;97609.47;1706507;84;26028;-86
2022/03/06 04:13:52;;;;;;;173.25;87.12;;;;;;;-1.88;69.45;97614.89;1706608;84;25699;-86
2022/03/06 04:16:18;;;;;;;168.52;88.70;;;;;;;-1.87;69.50;97616.56;1706814;83;25908;-87
2022/03/06 04:18:45;;;;;;;174.50;88.07;;;;;;;-1.84;69.49;97614.52;1706743;84;25665;-87
2022/03/06 04:21:11;;;;;;;172.05;90.92;;;;;;;-1.83;69.49;97616.19;1706617;84;28121;-87
2022/03/06 04:23:38;;;;;;;162.45;85.47;;;;;;;-1.86;69.51;97616.44;1706545;83;25790;-87
2022/03/06 04:26:05;;;;;;;165.12;86.57;;;;;;;-1.90;69.57;97612.36;1696164;84;25250;-87
2022/03/06 04:28:31;;;;;;;175.50;84.70;;;;;;;-1.92;69.63;97612.97;1666181;86;25894;-87
2022/03/06 04:30:58;;;;;;;162.82;85.17;;;;;;;-1.92;69.74;97611.65;1667865;86;25695;-87
2022/03/06 04:33:25;;;;;;;170.68;87.27;;;;;;;-1.93;69.70;97611.77;1667781;86;27583;-87
2022/03/06 04:35:51;;;;;;;163.43;83.52;;;;;;;-1.92;69.82;97607.68;1667437;86;25818;-87
2022/03/06 04:38:18;;;;;;;163.12;86.17;;;;;;;-1.88;69.88;97599.84;1667874;86;25691;-87
2022/03/06 04:40:46;;;;;;;169.32;85.75;;;;;;;-1.87;69.83;97598.88;1667919;86;25851;-88
2022/03/06 04:43:13;;;;;;;163.77;84.42;;;;;;;-1.85;69.89;97598.27;1667845;85;25668;-87
2022/03/06 04:45:39;;;;;;;174.42;87.75;;;;;;;-1.82;69.94;97599.34;1667896;86;27534;-87
2022/03/06 04:48:06;;;;;;;167.47;85.17;;;;;;;-1.81;69.90;97597.51;1667813;86;25820;-87
2022/03/06 04:50:33;;;;;;;160.93;82.50;;;;;;;-1.78;69.89;97601.71;1667928;84;25697;-87
2022/03/06 04:52:59;;;;;;;168.78;84.85;;;;;;;-1.75;69.79;97602.30;1667849;86;25789;-87
2022/03/06 04:55:26;;;;;;;165.82;82.67;;;;;;;-1.71;69.77;97596.27;1667964;84;25795;-87
2022/03/06 04:57:52;;;;;;;163.32;83.90;;;;;;;-1.76;69.69;97595.33;1667862;86;28192;-87
2022/03/06 05:00:19;;;;;;;166.60;83.58;;;;;;;-1.74;69.79;97595.20;1667844;86;25767;-88
2022/03/06 05:02:45;;;;;;;159.72;78.72;;;;;;;-1.78;69.83;97596.42;1667856;86;25808;-88
2022/03/06 05:05:12;;;;;;;175.78;87.30;;;;;;;-1.78;69.94;97599.06;1670208;83;26684;-88
2022/03/06 05:07:39;;;;;;;177.57;86.63;;;;;;;-1.82;69.93;97599.83;1669698;86;25720;-88
2022/03/06 05:10:10;;;;;;;166.82;81.50;;;;;;;-1.83;69.93;97602.96;1696263;84;27598;-88
2022/03/06 05:12:40;;;;;;;128.38;65.15;;;;;;;-1.79;69.95;97604.00;1698782;83;25709;-88
2022/03/06 05:15:10;;;;;;;173.93;87.47;;;;;;;-1.80;70.02;97605.80;1682785;84;25699;-88
2022/03/06 05:17:39;;;;;;;170.85;86.32;;;;;;;-1.78;70.14;97601.71;1659258;86;25689;-87
2022/03/06 05:20:08;;;;;;;168.30;85.28;;;;;;;-1.77;70.21;97604.72;1659222;85;25735;-88
2022/03/06 05:22:35;;;;;;;165.47;80.15;;;;;;;-1.79;70.23;97596.91;1646064;86;27478;-88
2022/03/06 05:25:03;;;;;;;157.47;80.42;;;;;;;-1.78;70.28;97601.23;1667501;81;25658;-88
2022/03/06 05:27:30;;;;;;;155.82;82.10;;;;;;;-1.84;70.22;97598.63;1716459;83;25815;-88
2022/03/06 05:29:56;;;;;;;166.80;82.88;;;;;;;-1.90;70.21;97603.59;1717685;83;25886;-88
2022/03/06 05:32:23;;;;;;;162.47;79.37;;;;;;;-1.90;70.29;97599.13;1717876;83;25694;-87
2022/03/06 05:34:50;;;;;;;144.05;72.67;;;;;;;-1.87;70.34;97602.02;1715877;83;27360;-87
2022/03/06 05:37:17;;;;;;;133.30;67.40;;;;;;;-1.83;70.39;97606.09;1712233;83;25736;-88
2022/03/06 05:39:43;;;;;;;129.68;62.30;;;;;;;-1.89;70.14;97598.17;1712159;83;25721;-88
2022/03/06 05:42:10;;;;;;;96.75;48.73;;;;;;;-1.88;70.12;97602.50;1712162;83;26381;-88
2022/03/06 05:44:37;;;;;;;97.47;48.50;;;;;;;-1.86;69.99;97605.02;1711882;83;25760;-88
2022/03/06 05:47:04;;;;;;;92.00;45.10;;;;;;;-1.79;69.85;97600.03;1712096;83;27590;-88
2022/03/06 05:49:31;;;;;;;78.72;42.10;;;;;;;-1.75;69.92;97596.17;1712125;83;25717;-88
2022/03/06 05:51:57;;;;;;;67.58;35.73;;;;;;;-1.73;69.82;97598.20;1712164;83;25687;-87
2022/03/06 05:54:24;;;;;;;60.40;31.45;;;;;;;-1.74;69.66;97599.17;1711881;83;25800;-88
2022/03/06 05:56:50;;;;;;;55.85;28.55;;;;;;;-1.75;69.28;97597.00;1712262;83;25728;-89
2022/03/06 05:59:17;;;;;;;32.53;18.90;;;;;;;-1.71;69.04;97601.56;1712175;83;28176;-88
2022/03/06 06:01:44;;;;;;;35.65;19.45;;;;;;;-1.68;68.67;97604.77;1712011;83;25905;-88
2022/03/06 06:04:12;;;;;;;33.55;16.85;;;;;;;-1.61;68.59;97603.77;1712258;83;25701;-87
2022/03/06 06:06:39;;;;;;;31.30;16.67;;;;;;;-1.58;68.32;97603.52;1716812;83;25731;-88
2022/03/06 06:09:06;;;;;;;32.73;17.10;;;;;;;-1.56;68.04;97612.98;1716089;83;25640;-88
2022/03/06 06:11:33;;;;;;;36.20;18.50;;;;;;;-1.54;67.86;97610.20;1712044;83;27597;-88
2022/03/06 06:13:59;;;;;;;38.63;20.02;;;;;;;-1.50;67.91;97615.61;1712037;83;25694;-88
2022/03/06 06:16:26;;;;;;;40.95;22.07;;;;;;;-1.45;67.86;97617.39;1712031;83;25643;-88
2022/03/06 06:18:52;;;;;;;44.27;22.95;;;;;;;-1.42;67.81;97614.45;1711847;83;26444;-88
2022/03/06 06:21:19;;;;;;;51.75;25.45;;;;;;;-1.37;67.58;97618.88;1711623;83;25793;-88
2022/03/06 06:23:46;;;;;;;55.60;26.33;;;;;;;-1.35;67.57;97616.95;1710831;83;27524;-89
2022/03/06 06:26:12;;;;;;;57.90;28.32;;;;;;;-1.32;67.44;97619.30;1710463;83;25877;-88
2022/03/06 06:28:39;;;;;;;51.65;24.52;;;;;;;-1.30;67.30;97619.18;1711133;83;25799;-88
2022/03/06 06:31:07;;;;;;;55.45;22.62;;;;;;;-1.29;67.11;97616.89;1710794;83;26600;-89
2022/03/06 06:33:35;;;;;;;72.47;24.25;;;;;;;-1.30;66.73;97617.37;1711033;83;25749;-89
2022/03/06 06:36:03;;;;;;;75.30;26.48;;;;;;;-1.32;66.47;97614.50;1711662;83;27428;-88
2022/03/06 06:38:30;;;;;;;355.80;139.05;;;;;;;-1.34;66.16;97619.95;1711426;83;25820;-88
2022/03/06 06:40:57;;;;;;;155.78;46.85;;;;;;;-1.35;66.12;97615.63;1711577;83;25786;-88
2022/03/06 06:43:23;;;;;;;114.10;32.30;;;;;;;-1.35;66.00;97610.33;1711701;83;25823;-88
2022/03/06 06:45:50;;;;;;;49.27;18.42;;;;;;;-1.33;65.83;97623.44;1711507;83;25724;-88
2022/03/06 06:48:16;;;;;;;27.77;14.18;;;;;;;-1.32;65.67;97619.79;1711412;83;27699;-88
2022/03/06 06:50:43;;;;;;;64.42;21.30;;;;;;;-1.35;65.39;97623.56;1711219;83;25777;-88
2022/03/06 06:53:10;;;;;;;70.62;25.15;;;;;;;-1.33;65.48;97622.95;1711070;83;25719;-88
2022/03/06 06:55:37;;;;;;;76.22;26.05;;;;;;;-1.30;65.54;97618.69;1711148;83;26539;-88
2022/03/06 06:58:04;;;;;;;298.68;120.33;;;;;;;-1.27;65.34;97629.03;1711347;83;25790;-88
2022/03/06 07:00:31;;;;;;;209.65;79.75;;;;;;;-1.23;65.27;97625.64;1711360;83;27270;-88
2022/03/06 07:02:58;;;;;;;181.00;50.92;;;;;;;-1.21;65.21;97620.54;1711307;83;25818;-87
2022/03/06 07:05:24;;;;;;;54.48;22.15;;;;;;;-1.20;65.13;97623.55;1711401;83;25694;-88
2022/03/06 07:07:53;;;;;;;34.30;17.73;;;;;;;-1.19;65.01;97623.06;1711320;83;25764;-87
2022/03/06 07:10:20;;;;;;;42.15;16.87;;;;;;;-1.18;65.02;97618.11;1711393;83;25717;-88
2022/03/06 07:12:51;;;;;;;49.93;19.32;;;;;;;-1.19;64.84;97621.25;1711326;83;27386;-88
2022/03/06 07:15:17;;;;;;;56.33;24.32;;;;;;;-1.19;64.90;97619.92;1711390;83;25765;-88
2022/03/06 07:17:44;;;;;;;50.67;17.05;;;;;;;-1.20;64.56;97630.16;1711234;83;25711;-87
2022/03/06 07:20:12;;;;;;;50.63;16.67;;;;;;;-1.22;64.57;97620.70;1711398;83;25810;-88
2022/03/06 07:22:39;;;;;;;45.33;16.20;;;;;;;-1.22;64.38;97628.16;1711316;83;25755;-88
2022/03/06 07:25:06;;;;;;;30.40;15.35;;;;;;;-1.19;64.33;97626.55;1711351;83;28232;-88
2022/03/06 07:27:32;;;;;;;104.80;43.92;;;;;;;-1.18;64.38;97634.01;1711680;83;26003;-88
2022/03/06 07:29:59;;;;;;;94.17;46.63;;;;;;;-1.18;64.13;97628.23;1712038;83;25674;-88
2022/03/06 07:32:26;;;;;;;96.05;31.00;;;;;;;-1.15;64.21;97625.32;1712154;83;26173;-88
2022/03/06 07:34:52;;;;;;;59.35;20.55;;;;;;;-1.10;64.20;97623.13;1712122;83;26286;-87
2022/03/06 07:37:19;;;;;;;41.92;16.17;;;;;;;-1.04;64.08;97628.84;1712060;83;26906;-88
2022/03/06 07:39:45;;;;;;;47.23;16.80;;;;;;;-1.03;63.77;97626.06;1711973;83;25734;-88
2022/03/06 07:42:12;;;;;;;58.63;19.40;;;;;;;-1.03;63.57;97626.55;1712040;83;25757;-88
2022/03/06 07:44:39;;;;;;;30.85;12.75;;;;;;;-1.05;63.35;97625.84;1712156;83;25781;-88
2022/03/06 07:47:06;;;;;;;27.52;11.53;;;;;;;-1.03;63.37;97621.25;1711855;83;26057;-87
2022/03/06 07:49:33;;;;;;;28.17;12.05;;;;;;;-1.05;62.93;97619.21;1712097;83;27315;-87
2022/03/06 07:52:00;;;;;;;34.23;20.40;;;;;;;-1.06;62.98;97615.72;1712023;83;25839;-87
2022/03/06 07:54:26;;;;;;;44.88;19.90;;;;;;;-1.04;62.92;97615.59;1711873;83;25745;-88
2022/03/06 07:56:53;;;;;;;78.62;19.48;;;;;;;-1.06;62.82;97610.91;1712255;83;25896;-87
2022/03/06 07:59:21;;;;;;;25.37;10.65;;;;;;;-1.05;62.83;97617.41;1712222;83;25635;-87
2022/03/06 08:01:48;;;;;;;40.03;14.40;;;;;;;-1.02;62.81;97608.36;1711966;83;27473;-88
2022/03/06 08:04:14;;;;;;;55.50;18.60;;;;;;;-0.99;62.79;97610.75;1712346;83;25761;-88
2022/03/06 08:06:41;;;;;;;26.68;14.15;;;;;;;-1.00;62.60;97605.93;1711991;83;25715;-88
2022/03/06 08:09:07;;;;;;;37.45;16.55;;;;;;;-0.97;62.67;97605.67;1711945;83;26609;-88
2022/03/06 08:11:34;;;;;;;68.85;38.02;;;;;;;-0.97;62.43;97606.99;1712066;83;25655;-88
2022/03/06 08:14:00;;;;;;;47.60;22.48;;;;;;;-0.93;62.45;97612.84;1712180;83;27455;-88
2022/03/06 08:16:27;;;;;;;21.80;11.63;;;;;;;-0.90;62.33;97612.58;1713887;83;25700;-87
2022/03/06 08:18:53;;;;;;;19.48;10.80;;;;;;;-0.95;61.94;97609.48;1714764;83;25229;-87
2022/03/06 08:21:20;;;;;;;31.73;13.38;;;;;;;-0.95;62.10;97614.78;1711718;83;25717;-88
2022/03/06 08:23:49;;;;;;;55.65;18.73;;;;;;;-0.89;62.28;97612.45;1711682;83;25614;-88
2022/03/06 08:26:15;;;;;;;46.48;20.05;;;;;;;-0.82;62.27;97618.03;1709223;82;27500;-88
2022/03/06 08:28:42;;;;;;;31.27;14.30;;;;;;;-0.76;62.32;97616.18;1717173;83;26336;-88
2022/03/06 08:31:09;;;;;;;46.00;15.85;;;;;;;-0.74;61.98;97614.23;1684777;85;25758;-88
2022/03/06 08:33:36;;;;;;;25.95;12.78;;;;;;;-0.73;61.89;97615.91;1759122;80;26418;-88
2022/03/06 08:36:04;;;;;;;35.23;15.65;;;;;;;-0.74;61.69;97610.27;1750701;81;25692;-89
2022/03/06 08:38:31;;;;;;;24.27;11.57;;;;;;;-0.76;61.71;97614.85;1717174;83;27548;-86
2022/03/06 08:40:57;;;;;;;34.83;15.03;;;;;;;-0.77;61.67;97602.58;1716990;83;25876;-86
2022/03/06 08:43:24;;;;;;;45.80;17.75;;;;;;;-0.74;61.75;97611.58;1684501;83;25691;-87
2022/03/06 08:45:56;;;;;;;51.30;19.05;;;;;;;-0.66;61.79;97603.78;1683369;83;25786;-87
2022/03/06 08:48:24;;;;;;;48.73;20.82;;;;;;;-0.63;61.76;97598.21;1684726;85;25775;-88
2022/03/06 08:50:51;;;;;;;49.13;20.17;;;;;;;-0.59;61.65;97592.96;1684272;85;28245;-88
2022/03/06 08:53:19;;;;;;;64.05;23.50;;;;;;;-0.54;61.54;97589.91;1684174;83;25735;-89
2022/03/06 08:55:47;;;;;;;52.25;20.17;;;;;;;-0.50;61.50;97586.86;1719906;83;25693;-89
2022/03/06 08:58:21;;;;;;;38.38;15.35;;;;;;;-0.58;61.41;97567.29;1692369;83;25844;-89
2022/03/06 09:00:49;;;;;;;31.10;14.28;;;;;;;-0.42;61.53;97591.45;1722723;83;25802;-88
2022/03/06 09:03:16;;;;;;;29.85;13.03;;;;;;;-0.37;61.36;97595.38;1742549;81;27974;-87
2022/03/06 09:05:42;;;;;;;33.10;14.80;;;;;;;-0.34;61.26;97588.09;1750993;81;25743;-87
2022/03/06 09:08:10;;;;;;;27.17;12.68;;;;;;;-0.28;61.19;97591.54;1750542;81;25701;-87
2022/03/06 09:10:40;;;;;;;27.65;14.33;;;;;;;-0.25;61.03;97594.77;1750469;81;25698;-87
2022/03/06 09:13:08;;;;;;;21.70;11.70;;;;;;;-0.24;60.70;97595.59;1750415;81;25805;-87
2022/03/06 09:15:37;;;;;;;15.60;10.08;;;;;;;-0.28;60.49;97597.69;1750587;81;27534;-88
2022/03/06 09:18:05;;;;;;;24.05;11.03;;;;;;;-0.32;60.33;97600.74;1750668;79;26278;-87
2022/03/06 09:20:32;;;;;;;29.63;13.48;;;;;;;-0.32;60.30;97596.77;1750641;81;25757;-87
2022/03/06 09:22:58;;;;;;;35.38;15.58;;;;;;;-0.30;60.57;97594.81;1750587;81;26298;-87
2022/03/06 09:25:28;;;;;;;23.35;12.58;;;;;;;-0.26;60.49;97597.06;1750741;81;25769;-87
2022/03/06 09:27:54;;;;;;;42.83;21.07;;;;;;;-0.28;60.16;97593.70;1758436;80;28305;-87
2022/03/06 09:30:21;;;;;;;34.33;19.65;;;;;;;-0.29;60.20;97593.84;1760996;81;26143;-87
2022/03/06 09:32:47;;;;;;;39.95;16.67;;;;;;;-0.26;60.42;97596.22;1760904;81;25703;-87
2022/03/06 09:35:16;;;;;;;55.23;24.70;;;;;;;-0.25;60.06;97592.59;1760782;81;25838;-87
2022/03/06 09:37:43;;;;;;;32.40;15.53;;;;;;;-0.24;60.20;97591.63;1761095;81;25764;-87
2022/03/06 09:40:12;;;;;;;42.70;16.62;;;;;;;-0.22;59.98;97593.62;1761060;81;27317;-87
2022/03/06 09:42:39;;;;;;;40.25;17.15;;;;;;;-0.23;60.04;97592.78;1761089;79;25746;-87
2022/03/06 09:45:09;;;;;;;50.48;18.23;;;;;;;-0.21;60.17;97580.70;1760790;81;25782;-87
2022/03/06 09:47:37;;;;;;;52.30;20.90;;;;;;;-0.17;59.99;97586.09;1761035;81;25760;-87
2022/03/06 09:50:07;;;;;;;39.13;17.52;;;;;;;-0.11;60.13;97585.52;1761235;81;25673;-87
2022/03/06 09:52:33;;;;;;;51.85;22.48;;;;;;;-0.09;59.98;97588.38;1761073;81;28210;-87
2022/03/06 09:55:01;;;;;;;60.25;31.62;;;;;;;-0.06;59.94;97592.58;1761187;81;25697;-86
2022/03/06 09:57:28;;;;;;;42.67;21.20;;;;;;;-0.01;59.91;97589.03;1760921;81;25839;-87
2022/03/06 09:59:55;;;;;;;34.50;16.02;;;;;;;0.02;59.88;97591.38;1761090;81;26562;-87
2022/03/06 10:02:21;;;;;;;39.23;18.62;;;;;;;0.04;59.57;97594.73;1761133;81;25704;-87
2022/03/06 10:04:50;;;;;;;31.62;14.43;;;;;;;0.05;59.34;97596.89;1761114;81;27521;-87
2022/03/06 10:07:21;;;;;;;22.48;11.08;;;;;;;0.04;59.05;97586.77;1760717;81;25744;-87
2022/03/06 10:09:58;;;;;;;14.70;8.03;;;;;;;0.07;58.95;97585.66;1761318;81;25705;-87
2022/03/06 10:12:32;;;;;;;19.67;10.58;;;;;;;0.10;58.82;97586.22;1761051;81;25700;-87
2022/03/06 10:15:07;;;;;;;16.95;9.23;;;;;;;0.13;58.92;97581.92;1760287;81;25863;-87
2022/03/06 10:17:35;;;;;;;22.15;12.33;;;;;;;0.16;58.88;97579.00;1760707;81;27387;-87
2022/03/06 10:20:09;;;;;;;63.68;37.23;;;;;;;0.21;58.75;97582.08;1760797;81;25674;-88
2022/03/06 10:22:43;;;;;;;60.03;39.00;;;;;;;0.24;58.89;97587.08;1756106;81;25809;-87
2022/03/06 10:25:16;;;;;;;52.55;36.05;;;;;;;0.29;58.90;97582.67;1760957;81;25755;-87
2022/03/06 10:27:57;;;;;;;39.13;25.37;;;;;;;0.33;58.97;97580.93;1761081;81;25263;-87
2022/03/06 10:30:41;;;;;;;19.50;12.73;;;;;;;0.39;58.88;97577.34;1761087;81;27391;-87
2022/03/06 10:33:10;;;;;;;16.48;9.95;;;;;;;0.42;58.52;97573.08;1759997;81;26339;-87
2022/03/06 10:35:41;;;;;;;17.32;10.45;;;;;;;0.40;58.31;97572.38;1761245;81;25861;-87
2022/03/06 10:38:26;;;;;;;17.87;9.35;;;;;;;0.40;58.44;97576.36;1761055;81;25778;-87
2022/03/06 10:40:54;;;;;;;16.82;9.28;;;;;;;0.41;58.20;97567.41;1743737;81;25735;-87
2022/03/06 10:43:33;;;;;;;12.70;8.05;;;;;;;0.41;58.07;97567.41;1761090;81;27948;-88
2022/03/06 10:46:16;;;;;;;13.85;8.80;;;;;;;0.37;58.18;97560.22;1760951;81;26286;-87
2022/03/06 10:48:55;;;;;;;15.72;9.55;;;;;;;0.42;58.17;97559.80;1759619;81;25733;-87
2022/03/06 10:51:22;;;;;;;16.23;9.68;;;;;;;0.46;58.15;97554.55;1761085;81;25686;-87
2022/03/06 10:53:58;;;;;;;14.13;9.13;;;;;;;0.46;58.09;97551.89;1761053;81;25793;-87
2022/03/06 10:56:27;;;;;;;17.17;10.32;;;;;;;0.47;57.87;97557.06;1761107;81;27428;-87
2022/03/06 10:58:56;;;;;;;19.27;9.40;;;;;;;0.49;58.10;97555.56;1761033;81;25927;-87
2022/03/06 11:01:23;;;;;;;12.37;8.45;;;;;;;0.52;58.19;97553.47;1761162;81;25693;-87
2022/03/06 11:03:51;;;;;;;15.53;9.60;;;;;;;0.57;58.08;97554.37;1760762;81;25751;-87
2022/03/06 11:06:23;;;;;;;15.18;8.48;;;;;;;0.61;58.04;97547.77;1761118;81;25705;-87
2022/03/06 11:08:50;;;;;;;15.58;10.10;;;;;;;0.62;57.90;97551.61;1761086;81;27438;-87
2022/03/06 11:11:17;;;;;;;13.03;8.70;;;;;;;0.65;58.00;97546.50;1761027;81;25725;-88
2022/03/06 11:13:44;;;;;;;16.40;9.68;;;;;;;0.69;57.61;97549.22;1761130;81;25646;-87
2022/03/06 11:16:11;;;;;;;14.23;9.35;;;;;;;0.68;57.40;97548.88;1761219;81;26257;-87